Terminal Aerodrome Forecast
Issued by NWS Twin Cities, MN

Home | Current Version | Previous Version | Graphics & Text | Print | Product List | Glossary On
Versions: 1 2 3 4 5 6 7 8 9 10 11 12 13 14 15 16 17 18
000
FTUS43 KMPX 041740
TAFSTC
TAF
KSTC 041740Z 0418/0518 16007KT 4SM FU SCT050 SCT250
     FM042100 18009KT P6SM SCT050 SCT250
     FM050100 16005KT P6SM SCT250
     FM051300 18010KT P6SM FEW100 SCT250=

USA.gov is the U.S. government's official web portal to all federal, state and local government web resources and services.